Allyn, WA

5:44 AM PDT on May 30, 2015 (GMT -0700)
Happy Hollow Estates | | Change Station
CLOSE
Current Station
Personal Weather Station
Location: Belfair, WA
Elevation: 203 ft
Nearby Weather Stations

Elev 203 ft 47.38 °N, 122.92 °W | Updated 27 seconds ago

Overcast
Overcast
49.6 °F
Feels Like 48 °F
N
5.4
Wind Variable Wind from SW
Gusts 6.0 mph

Today
High -- | Low -- °F
--% Chance of Precip.
Yesterday
High -- | Low -- °F
Precip. -- in
5:20 AM 8:58 PM
Waxing Gibbous, 90% visible
Pressure 29.98 in
Visibility 8.0 miles
Clouds Overcast 500 ft
Windchill 48 °F
Dew Point 48 °F
Humidity 95%
Rainfall 0.00 in
Snow Depth Not available.
UV 0 out of 12
Pollen 8.30 out of 12
Air Quality Not available.
Flu Activity Sporadic
METAR KPWT 301235Z AUTO 18005KT 8SM OVC005 09/09 A2998 RMK AO1

More Conditions Fewer Conditions

Pressure 29.98 in
Visibility 8.0 miles
Clouds Overcast 500 ft
Windchill 48 °F
Dew Point 48 °F
Humidity 95%
Rainfall 0.00 in
Snow Depth Not available.
UV 0 out of 12
Pollen 8.30 out of 12
Air Quality Not available.
Flu Activity Sporadic
METAR KPWT 301235Z AUTO 18005KT 8SM OVC005 09/09 A2998 RMK AO1

More Conditions Fewer Conditions

10-Day Weather Forecast

Almanac

Astronomy

May. 30, 2015 Rise Set
Actual Time
Civil Twilight
Nautical Twilight
Astronomical Twilight
Moon
Length of Visible Light
Length of Day
Tomorrow will be .
, % of the Moon is Illuminated

Today's Extremes

State Highs State Lows

Community

WunderPhotos

Upload Photos

1,825,498 photos uploaded!

WunderBlogs® & News

Nearby

Air Quality

  Air Quality AQ Index Pollutant
Not available.

Snow Depth

Station Depth Elevation

Earthquake Activity

City Distance Mag. Time & Date
Minimum magnitude displayed is 2.5.

Coastal Water Temperatures

Place Temperature

Stations

Nearby Weather Stations

Station Location Temp. Windchill Dew Point Humidity Wind Precip. Elev Updated Type